Airport View

Enter AWOS ICAO identifier for current METAR.

ex. KFNL

KHQG 120515Z AUTO 22017G23KT 10SM CLR 08/02 A2996 RMK AO2 T00770015

12 Dec 2019 05:34

Frequency: 118.600

Phone: 620-544-4000

Other Area AWOS: KLBL - KEHA - KULS - KGUY

TAF KGUY 112320Z 1200/1224 18016KT P6SM SCT250 FM120200 19018G27KT P6SM SCT250 WS020/21045KT FM120400 20018G27KT P6SM SCT200 WS020/22045KT FM120700 21015KT P6SM SCT250